Terminal Aerodrome Forecast
Issued by NWS

Home | Current Version | Previous Version | Text Only | Print | Product List | Glossary On
Versions: 1 2 3 4 5 6 7 8 9 10 11 12 13 14 15
000
FTUS44 KLIX 212300
TAFMSY
TAF
KMSY 212320Z 2200/2224 VRB05KT P6SM SCT050 BKN150
     FM220300 VRB04KT P6SM SCT250
     FM221500 VRB05KT P6SM SCT040=

USA.gov is the U.S. government's official web portal to all federal, state and local government web resources and services.